Time;durP1;ratioP1;P1;durP2;ratioP2;P2;SDS_P1;SDS_P2;PMS_P1;PMS_P2;Temp;Humidity;BMP_temperature;BMP_pressure;BME280_temperature;BME280_humidity;BME280_pressure;Samples;Min_cycle;Max_cycle;Signal;HPM_P1;HPM_P2
2024/04/24 00:00:15;;;;;;;4.00;0.15;;;;;;;1.69;53.26;100853.88;5284749;26;20329;-74
2024/04/24 00:02:41;;;;;;;7.05;0.75;;;;;;;1.78;53.32;100854.72;5282952;26;20340;-75
2024/04/24 00:05:06;;;;;;;1.15;0.20;;;;;;;1.49;53.53;100845.34;5331054;26;20002;-75
2024/04/24 00:07:32;;;;;;;1.20;0.10;;;;;;;1.08;53.97;100841.09;5309962;26;20489;-75
2024/04/24 00:09:58;;;;;;;4.35;0.25;;;;;;;1.03;54.08;100829.94;5295699;26;20014;-75
2024/04/24 00:12:23;;;;;;;4.93;0.20;;;;;;;1.30;54.09;100827.34;5286826;26;20476;-76
2024/04/24 00:14:49;;;;;;;10.35;0.60;;;;;;;1.37;54.04;100820.44;5296464;26;20005;-74
2024/04/24 00:17:14;;;;;;;5.78;0.28;;;;;;;1.14;54.61;100819.63;5339320;26;20016;-75
2024/04/24 00:19:40;;;;;;;4.97;0.20;;;;;;;1.81;53.43;100809.16;5295860;26;20001;-75
2024/04/24 00:22:05;;;;;;;0.63;0.10;;;;;;;1.87;53.41;100798.81;5300860;26;20071;-75
2024/04/24 00:24:31;;;;;;;2.20;0.10;;;;;;;1.42;54.17;100790.41;5285254;26;20791;-76
2024/04/24 00:26:56;;;;;;;1.75;0.17;;;;;;;1.72;53.73;100783.44;5291238;26;20415;-75
2024/04/24 00:29:23;;;;;;;1.83;0.20;;;;;;;1.79;53.80;100772.22;5296973;26;20342;-75
2024/04/24 00:31:52;;;;;;;4.43;0.32;;;;;;;1.84;53.43;100773.06;5268452;26;22190;-76
2024/04/24 00:34:18;;;;;;;4.07;0.30;;;;;;;1.81;53.86;100762.75;5318563;26;20112;-75
2024/04/24 00:36:44;;;;;;;6.43;0.77;;;;;;;1.55;54.61;100765.47;5314431;26;20000;-75
2024/04/24 00:39:09;;;;;;;4.30;0.15;;;;;;;1.83;54.01;100763.59;5271002;26;20013;-76
2024/04/24 00:41:35;;;;;;;3.80;0.15;;;;;;;1.80;54.18;100766.22;5295803;26;20005;-74
2024/04/24 00:44:01;;;;;;;2.80;0.20;;;;;;;2.24;53.69;100777.97;5322852;26;20673;-74
2024/04/24 00:46:28;;;;;;;10.35;0.90;;;;;;;2.23;54.15;100771.09;5344926;26;20427;-74
2024/04/24 00:48:56;;;;;;;2.78;0.32;;;;;;;2.27;53.51;100762.47;5295828;26;20348;-73
2024/04/24 00:51:23;;;;;;;1.75;0.22;;;;;;;2.01;55.00;100751.47;5298633;26;20025;-75
2024/04/24 00:53:49;;;;;;;3.33;0.45;;;;;;;1.97;54.86;100742.91;5302029;26;20068;-74
2024/04/24 00:56:15;;;;;;;5.45;0.40;;;;;;;1.68;55.79;100748.22;5330062;26;20028;-75
2024/04/24 00:58:43;;;;;;;7.30;0.40;;;;;;;1.51;56.39;100743.16;5290139;26;20029;-74
2024/04/24 01:01:10;;;;;;;4.38;0.43;;;;;;;1.43;56.14;100745.75;5300263;26;20009;-73
2024/04/24 01:03:36;;;;;;;2.63;0.47;;;;;;;1.36;56.71;100736.31;5320261;26;20015;-74
2024/04/24 01:06:01;;;;;;;13.10;0.30;;;;;;;1.57;56.33;100732.81;5303203;26;20477;-75
2024/04/24 01:08:27;;;;;;;1.23;0.40;;;;;;;1.46;56.56;100725.16;5290231;26;20000;-73
2024/04/24 01:10:56;;;;;;;5.50;0.28;;;;;;;1.41;56.64;100734.59;5305313;26;20028;-74
2024/04/24 01:13:22;;;;;;;5.25;0.30;;;;;;;1.55;56.48;100731.13;5307411;26;20001;-75
2024/04/24 01:15:53;;;;;;;11.65;0.32;;;;;;;1.79;55.71;100722.41;5304909;26;20087;-74
2024/04/24 01:18:20;;;;;;;5.95;0.63;;;;;;;1.66;55.95;100713.88;5328584;26;20016;-74
2024/04/24 01:20:47;;;;;;;6.18;0.50;;;;;;;1.56;56.71;100709.66;5345618;26;20016;-74
2024/04/24 01:23:35;;;;;;;4.22;0.30;;;;;;;1.89;55.50;100704.31;5319784;26;20005;-75
2024/04/24 01:26:14;;;;;;;11.20;0.70;;;;;;;1.66;56.29;100706.16;5319116;26;20005;-74
2024/04/24 01:28:39;;;;;;;5.88;0.28;;;;;;;1.60;56.63;100701.06;5283806;26;20002;-74
2024/04/24 01:31:05;;;;;;;2.60;0.20;;;;;;;1.13;58.14;100695.22;5297916;26;20013;-74
2024/04/24 01:33:31;;;;;;;4.47;0.30;;;;;;;1.70;56.72;100689.81;5300569;26;20017;-75
2024/04/24 01:35:56;;;;;;;1.38;0.30;;;;;;;1.96;55.91;100697.38;5288888;26;20009;-74
2024/04/24 01:38:22;;;;;;;3.20;0.57;;;;;;;1.79;56.63;100686.31;5291585;26;20021;-74
2024/04/24 01:40:47;;;;;;;4.50;0.38;;;;;;;1.45;57.32;100687.38;5297166;26;19997;-74
2024/04/24 01:43:13;;;;;;;8.68;0.80;;;;;;;1.87;56.72;100685.41;5289529;26;20364;-74
2024/04/24 01:45:42;;;;;;;1.92;0.28;;;;;;;2.01;56.67;100687.03;5344493;26;20005;-73
2024/04/24 01:48:07;;;;;;;3.28;0.40;;;;;;;2.10;56.19;100679.22;5289825;26;19998;-74
2024/04/24 01:50:33;;;;;;;6.18;0.40;;;;;;;1.99;56.53;100681.88;5298723;26;20019;-74
2024/04/24 01:52:59;;;;;;;2.92;0.82;;;;;;;2.07;55.96;100681.84;5342911;26;20057;-75
2024/04/24 01:55:24;;;;;;;6.63;0.50;;;;;;;1.90;56.70;100684.53;5306211;26;20042;-74
2024/04/24 01:57:50;;;;;;;3.22;0.40;;;;;;;2.19;56.18;100681.72;5295508;26;20116;-73
2024/04/24 02:00:15;;;;;;;5.63;0.35;;;;;;;1.92;57.07;100678.50;5295254;26;20080;-73
2024/04/24 02:02:41;;;;;;;5.75;0.93;;;;;;;2.13;56.92;100677.50;5320548;26;20020;-74
2024/04/24 02:05:06;;;;;;;8.73;0.20;;;;;;;2.38;56.43;100672.13;5354489;26;20021;-74
2024/04/24 02:07:32;;;;;;;6.03;0.45;;;;;;;2.22;56.73;100681.72;5302134;26;20448;-74
2024/04/24 02:09:57;;;;;;;5.63;0.40;;;;;;;2.45;56.73;100673.75;5295082;26;20001;-74
2024/04/24 02:12:23;;;;;;;2.25;0.30;;;;;;;2.60;56.37;100669.31;5303441;26;20349;-74
2024/04/24 02:14:48;;;;;;;3.35;0.20;;;;;;;2.68;55.93;100665.78;5342538;26;20001;-74
2024/04/24 02:17:13;;;;;;;1.13;0.35;;;;;;;2.38;56.52;100663.50;5303797;26;20001;-73
2024/04/24 02:19:41;;;;;;;2.75;0.52;;;;;;;2.33;56.92;100659.28;5300426;26;20091;-74
2024/04/24 02:22:06;;;;;;;1.45;0.10;;;;;;;2.17;56.93;100656.81;5303098;26;20005;-75
2024/04/24 02:27:16;;;;;;;1.90;0.10;;;;;;;2.26;56.76;100661.91;5325858;26;20013;-76
2024/04/24 02:29:41;;;;;;;3.03;0.20;;;;;;;1.82;57.56;100663.09;5297606;26;21280;-74
2024/04/24 02:32:07;;;;;;;2.50;0.20;;;;;;;2.13;57.03;100653.41;5305841;26;20024;-76
2024/04/24 02:34:32;;;;;;;0.85;0.30;;;;;;;2.05;57.34;100655.22;5302876;26;20303;-75
2024/04/24 02:36:58;;;;;;;5.55;0.20;;;;;;;2.07;57.52;100651.75;5315395;26;20629;-75
2024/04/24 02:39:23;;;;;;;0.15;0.00;;;;;;;1.97;57.63;100641.53;5304478;26;20004;-75
2024/04/24 02:41:49;;;;;;;0.30;0.10;;;;;;;1.88;57.45;100630.41;5300413;26;20483;-75
2024/04/24 02:44:14;;;;;;;2.08;0.20;;;;;;;1.70;58.27;100622.81;5307693;26;20005;-75
2024/04/24 02:46:40;;;;;;;0.40;0.10;;;;;;;1.80;58.02;100621.06;5352757;26;20491;-75
2024/04/24 02:49:06;;;;;;;1.75;0.10;;;;;;;1.83;57.85;100621.00;5301875;26;20012;-75
2024/04/24 02:51:31;;;;;;;1.05;0.03;;;;;;;2.00;57.48;100615.69;5309812;26;20017;-73
2024/04/24 02:53:57;;;;;;;1.92;0.00;;;;;;;1.88;57.75;100607.22;5284513;26;20001;-74
2024/04/24 02:56:22;;;;;;;2.33;0.17;;;;;;;1.79;57.46;100604.72;5304694;26;20025;-74
2024/04/24 02:58:48;;;;;;;2.40;0.10;;;;;;;1.91;57.39;100599.47;5348779;26;20083;-74
2024/04/24 03:01:13;;;;;;;0.40;0.20;;;;;;;1.81;57.43;100595.25;5301665;26;20021;-74
2024/04/24 03:03:40;;;;;;;0.88;0.10;;;;;;;1.73;58.11;100599.63;5307978;26;20067;-74
2024/04/24 03:06:06;;;;;;;0.80;0.73;;;;;;;1.85;57.66;100586.63;5302088;26;20649;-75
2024/04/24 03:08:31;;;;;;;0.98;0.10;;;;;;;1.85;57.23;100589.22;5309992;26;20031;-75
2024/04/24 03:10:57;;;;;;;1.63;0.32;;;;;;;1.78;57.71;100584.13;5305168;26;20063;-75
2024/04/24 03:13:22;;;;;;;2.75;0.32;;;;;;;1.32;58.61;100572.38;5300466;26;20648;-75
2024/04/24 03:15:47;;;;;;;1.55;0.05;;;;;;;1.84;57.99;100581.47;5307497;26;20110;-74
2024/04/24 03:18:13;;;;;;;1.48;0.10;;;;;;;1.63;58.00;100567.06;5301703;26;20048;-75
2024/04/24 03:20:39;;;;;;;0.93;0.10;;;;;;;1.44;58.38;100577.50;5310089;26;20026;-74
2024/04/24 03:23:04;;;;;;;0.90;0.10;;;;;;;1.69;57.99;100559.28;5275735;26;20017;-74
2024/04/24 03:25:30;;;;;;;1.08;0.10;;;;;;;1.67;57.99;100553.28;5310733;26;20012;-74
2024/04/24 03:27:56;;;;;;;0.20;0.00;;;;;;;1.75;58.00;100556.63;5332337;26;20033;-74
2024/04/24 03:30:21;;;;;;;0.38;0.10;;;;;;;1.96;57.46;100549.59;5296367;26;20021;-75
2024/04/24 03:32:47;;;;;;;2.08;0.10;;;;;;;1.78;57.74;100548.06;5301161;26;20013;-75
2024/04/24 03:35:12;;;;;;;0.20;0.00;;;;;;;1.20;59.81;100539.00;5321437;26;20005;-75
2024/04/24 03:37:38;;;;;;;2.30;0.30;;;;;;;1.59;58.35;100537.03;5303796;26;20360;-74
2024/04/24 03:40:04;;;;;;;2.05;0.00;;;;;;;1.55;58.63;100537.91;5311282;26;20009;-74
2024/04/24 03:42:30;;;;;;;1.20;0.10;;;;;;;1.32;59.80;100538.91;5299988;26;20006;-74
2024/04/24 03:44:56;;;;;;;1.65;0.10;;;;;;;1.66;58.71;100528.38;5279296;26;20074;-74
2024/04/24 03:47:21;;;;;;;1.35;0.10;;;;;;;1.36;59.39;100526.88;5305348;26;20025;-74
2024/04/24 03:49:46;;;;;;;1.15;0.10;;;;;;;1.83;58.29;100518.78;5308033;26;20235;-74
2024/04/24 03:52:12;;;;;;;0.30;0.10;;;;;;;1.24;60.30;100508.09;5299810;26;20972;-75
2024/04/24 03:54:37;;;;;;;1.35;0.25;;;;;;;0.84;61.11;100504.91;5300921;26;20021;-75
2024/04/24 03:57:03;;;;;;;5.45;0.20;;;;;;;1.31;60.55;100508.91;5298024;26;20006;-75
2024/04/24 03:59:28;;;;;;;4.53;0.90;;;;;;;1.24;59.95;100527.84;5302568;26;20005;-75
2024/04/24 04:01:54;;;;;;;0.30;0.10;;;;;;;1.67;59.05;100535.25;5300888;26;20005;-75
2024/04/24 04:04:20;;;;;;;3.20;0.45;;;;;;;1.47;58.86;100525.97;5310629;26;20465;-74
2024/04/24 04:06:45;;;;;;;2.08;0.28;;;;;;;1.20;60.18;100531.28;5307076;26;20616;-74
2024/04/24 04:09:10;;;;;;;2.65;0.30;;;;;;;1.31;59.70;100544.94;5302763;26;20014;-74
2024/04/24 04:11:36;;;;;;;3.20;0.15;;;;;;;1.55;59.01;100543.06;5314619;26;20016;-75
2024/04/24 04:14:01;;;;;;;0.50;0.10;;;;;;;1.70;59.07;100545.53;5306573;26;20087;-74
2024/04/24 04:16:28;;;;;;;0.95;0.20;;;;;;;1.36;59.84;100547.47;5312470;26;22529;-75
2024/04/24 04:18:53;;;;;;;1.13;0.20;;;;;;;1.57;59.61;100525.88;5309265;26;20020;-76
2024/04/24 04:21:19;;;;;;;2.83;0.70;;;;;;;1.59;59.48;100532.72;5310033;26;20005;-74
2024/04/24 04:23:44;;;;;;;3.97;0.28;;;;;;;1.83;58.61;100534.25;5304130;26;20092;-75
2024/04/24 04:26:10;;;;;;;5.75;0.47;;;;;;;1.86;59.07;100513.63;5310717;26;20007;-75
2024/04/24 04:28:35;;;;;;;1.83;0.22;;;;;;;2.03;58.47;100516.00;5300062;26;20031;-76
2024/04/24 04:31:00;;;;;;;1.75;0.30;;;;;;;2.10;58.12;100511.66;5283049;26;20009;-75
2024/04/24 04:33:26;;;;;;;2.03;0.20;;;;;;;2.30;58.13;100512.28;5266914;26;20619;-74
2024/04/24 04:35:51;;;;;;;1.88;0.30;;;;;;;2.38;57.94;100503.59;5297309;26;20622;-75
2024/04/24 04:38:17;;;;;;;3.78;0.35;;;;;;;2.47;57.83;100506.06;5297369;26;20021;-74
2024/04/24 04:40:45;;;;;;;3.35;0.40;;;;;;;2.50;57.62;100506.03;5307106;26;20017;-75
2024/04/24 04:43:11;;;;;;;2.45;0.20;;;;;;;2.46;57.38;100505.19;5324591;26;20068;-75
2024/04/24 04:45:36;;;;;;;2.80;0.40;;;;;;;2.55;57.42;100493.91;5303012;26;20016;-74
2024/04/24 04:48:04;;;;;;;0.80;0.20;;;;;;;2.60;57.66;100493.84;5279927;26;20141;-75
2024/04/24 04:50:30;;;;;;;4.43;0.70;;;;;;;2.43;57.94;100487.19;5294549;26;20618;-75
2024/04/24 04:52:55;;;;;;;3.20;0.13;;;;;;;2.54;57.60;100481.91;5300633;26;20017;-74
2024/04/24 04:55:21;;;;;;;6.72;0.20;;;;;;;2.50;57.96;100480.22;5292975;26;20356;-75
2024/04/24 04:57:47;;;;;;;3.38;0.30;;;;;;;2.51;57.71;100480.22;5266423;26;20464;-75
2024/04/24 05:00:13;;;;;;;3.63;0.95;;;;;;;2.59;57.70;100477.53;5287600;26;20710;-75
2024/04/24 05:02:38;;;;;;;6.78;0.32;;;;;;;2.24;58.27;100465.94;5284552;26;20055;-75
2024/04/24 05:05:04;;;;;;;0.35;0.20;;;;;;;2.34;57.62;100453.78;5300214;26;20017;-75
2024/04/24 05:07:29;;;;;;;4.15;0.20;;;;;;;2.42;57.98;100456.25;5339437;26;20027;-74
2024/04/24 05:09:55;;;;;;;0.93;0.20;;;;;;;2.59;57.20;100458.63;5331357;26;20534;-74
2024/04/24 05:12:20;;;;;;;1.38;0.10;;;;;;;2.37;57.23;100448.56;5322030;26;20023;-75
2024/04/24 05:14:49;;;;;;;0.32;0.10;;;;;;;2.43;56.93;100442.50;5303339;26;21049;-74
2024/04/24 05:17:14;;;;;;;4.25;0.17;;;;;;;2.55;56.95;100442.31;5296145;26;20013;-74
2024/04/24 05:19:40;;;;;;;1.65;0.10;;;;;;;2.58;56.57;100442.28;5301942;26;20009;-75
2024/04/24 05:22:05;;;;;;;0.77;0.20;;;;;;;2.61;56.38;100437.06;5269877;26;20018;-75
2024/04/24 05:24:31;;;;;;;2.92;0.20;;;;;;;2.74;56.59;100448.09;5296938;26;20087;-74
2024/04/24 05:29:40;;;;;;;2.03;0.30;;;;;;;2.74;56.68;100442.94;5299805;26;20009;-75
2024/04/24 05:32:06;;;;;;;1.65;0.20;;;;;;;2.34;57.40;100434.00;5294789;26;20476;-74
2024/04/24 05:34:31;;;;;;;1.65;0.30;;;;;;;2.43;57.34;100430.44;5306174;26;20555;-75
2024/04/24 05:36:57;;;;;;;2.83;0.40;;;;;;;2.77;56.45;100433.41;5301554;26;20005;-75
2024/04/24 05:39:22;;;;;;;1.00;0.10;;;;;;;2.97;56.06;100425.34;5300742;26;20013;-74
2024/04/24 05:41:48;;;;;;;0.88;0.10;;;;;;;3.07;56.04;100427.78;5282440;26;20125;-74
2024/04/24 05:44:14;;;;;;;6.57;0.40;;;;;;;4.55;53.59;100413.81;5299555;26;20693;-74
2024/04/24 05:46:40;;;;;;;2.38;0.15;;;;;;;4.24;52.86;100405.84;5305414;26;20020;-74
2024/04/24 05:49:05;;;;;;;1.85;0.20;;;;;;;3.82;53.55;100416.16;5298981;26;20010;-75
2024/04/24 05:51:30;;;;;;;1.10;0.22;;;;;;;3.49;54.78;100418.53;5299110;26;20016;-74
2024/04/24 05:53:56;;;;;;;3.05;0.30;;;;;;;3.13;55.60;100419.94;5297621;26;20041;-75
2024/04/24 05:56:21;;;;;;;1.67;0.50;;;;;;;3.05;56.10;100420.09;5305921;26;20029;-75
2024/04/24 05:58:47;;;;;;;2.60;0.10;;;;;;;2.77;56.61;100422.22;5266727;26;20658;-75
2024/04/24 06:01:12;;;;;;;0.50;0.05;;;;;;;2.85;56.39;100424.72;5294466;26;20568;-74
2024/04/24 06:03:38;;;;;;;1.50;0.10;;;;;;;2.98;56.11;100421.06;5343023;26;20008;-74
2024/04/24 06:06:03;;;;;;;2.42;0.10;;;;;;;2.73;56.43;100425.72;5274808;26;20029;-74
2024/04/24 06:08:29;;;;;;;0.68;0.20;;;;;;;2.53;56.92;100418.25;5300282;26;20471;-75
2024/04/24 06:10:54;;;;;;;0.47;0.10;;;;;;;2.69;56.37;100412.03;5333484;26;20451;-74
2024/04/24 06:13:20;;;;;;;2.83;0.00;;;;;;;2.47;57.04;100410.63;5308707;26;20009;-75
2024/04/24 06:15:45;;;;;;;4.80;0.17;;;;;;;2.33;57.77;100401.34;5353386;26;20011;-74
2024/04/24 06:18:11;;;;;;;1.33;0.20;;;;;;;2.57;57.98;100410.47;5308888;26;20034;-74
2024/04/24 06:20:36;;;;;;;0.70;0.20;;;;;;;2.45;58.03;100408.06;5292634;26;20072;-75
2024/04/24 06:23:01;;;;;;;1.73;0.10;;;;;;;2.49;58.19;100407.16;5306399;26;20021;-75
2024/04/24 06:25:27;;;;;;;1.65;0.10;;;;;;;2.69;57.63;100406.00;5295126;26;20286;-74
2024/04/24 06:27:52;;;;;;;1.10;0.10;;;;;;;2.55;58.46;100396.75;5297336;26;20013;-74
2024/04/24 06:30:18;;;;;;;0.88;0.10;;;;;;;2.82;57.71;100401.50;5321795;26;20345;-74
2024/04/24 06:32:43;;;;;;;1.08;0.10;;;;;;;2.97;57.61;100406.44;5297043;26;20016;-74
2024/04/24 06:35:09;;;;;;;1.10;0.10;;;;;;;3.11;57.47;100401.03;5312040;26;20009;-74
2024/04/24 06:37:34;;;;;;;1.92;0.00;;;;;;;3.05;57.20;100412.34;5304469;26;20019;-74
2024/04/24 06:40:00;;;;;;;3.75;0.10;;;;;;;3.17;56.86;100406.13;5324160;26;20399;-73
2024/04/24 06:42:26;;;;;;;0.40;0.10;;;;;;;5.37;53.42;100404.97;5303647;26;20059;-73
2024/04/24 06:44:51;;;;;;;0.17;0.00;;;;;;;6.97;47.02;100405.53;5299277;26;20348;-75
2024/04/24 06:47:17;;;;;;;1.80;0.10;;;;;;;6.82;47.00;100412.09;5354715;26;20517;-73
2024/04/24 06:49:43;;;;;;;1.42;0.10;;;;;;;6.18;48.53;100408.81;5278273;26;20013;-73
2024/04/24 06:52:08;;;;;;;0.35;0.20;;;;;;;5.80;49.48;100418.53;5283615;26;20006;-73
2024/04/24 06:54:34;;;;;;;1.65;0.20;;;;;;;5.63;50.58;100411.19;5344715;26;20073;-73
2024/04/24 06:56:59;;;;;;;2.17;0.40;;;;;;;5.60;51.03;100413.88;5304433;26;20452;-76
2024/04/24 06:59:25;;;;;;;1.00;0.30;;;;;;;6.69;50.61;100409.03;5287937;26;20009;-75
2024/04/24 07:01:51;;;;;;;3.00;0.20;;;;;;;10.26;44.04;100402.31;5304030;26;20020;-76
2024/04/24 07:04:16;;;;;;;2.72;0.10;;;;;;;13.43;38.80;100394.41;5301819;26;20033;-74
2024/04/24 07:06:42;;;;;;;2.63;0.17;;;;;;;15.67;33.79;100387.16;5302744;26;20019;-73
2024/04/24 07:09:08;;;;;;;0.88;0.10;;;;;;;15.22;32.88;100384.91;5296665;26;20017;-73
2024/04/24 07:11:33;;;;;;;4.43;0.10;;;;;;;14.97;31.18;100385.69;5290286;26;20006;-74
2024/04/24 07:13:59;;;;;;;1.65;0.10;;;;;;;14.49;34.15;100385.31;5290529;26;20005;-74
2024/04/24 07:16:24;;;;;;;1.77;0.10;;;;;;;13.07;35.93;100379.91;5283062;26;20037;-74
2024/04/24 07:18:50;;;;;;;1.17;0.10;;;;;;;11.52;37.00;100380.53;5284487;26;20013;-74
2024/04/24 07:21:15;;;;;;;1.55;0.20;;;;;;;10.99;37.34;100387.53;5294728;26;20025;-74
2024/04/24 07:23:41;;;;;;;2.50;0.20;;;;;;;11.18;38.08;100382.25;5294761;26;20075;-74
2024/04/24 07:26:07;;;;;;;2.22;0.10;;;;;;;10.05;37.78;100381.50;5351820;26;20010;-74
2024/04/24 07:28:32;;;;;;;2.92;0.47;;;;;;;8.83;41.44;100383.25;5297027;26;20004;-74
2024/04/24 07:30:58;;;;;;;0.98;0.10;;;;;;;9.17;41.01;100379.25;5299734;26;20009;-74
2024/04/24 07:33:24;;;;;;;4.03;0.32;;;;;;;9.23;41.01;100381.59;5298275;26;20006;-73
2024/04/24 07:35:51;;;;;;;2.58;0.47;;;;;;;8.26;42.92;100385.44;5298916;26;20080;-74
2024/04/24 07:38:17;;;;;;;3.30;0.60;;;;;;;7.52;44.71;100376.84;5357440;26;20010;-74
2024/04/24 07:40:43;;;;;;;4.13;0.35;;;;;;;6.95;46.23;100386.53;5329371;26;20008;-74
2024/04/24 07:43:13;;;;;;;3.47;0.22;;;;;;;7.50;45.38;100384.69;5300827;26;20020;-74
2024/04/24 07:45:40;;;;;;;2.10;0.13;;;;;;;7.90;44.51;100385.91;5304146;26;20023;-74
2024/04/24 07:48:06;;;;;;;3.20;0.50;;;;;;;9.34;44.36;100376.78;5281144;26;20483;-75
2024/04/24 07:50:32;;;;;;;3.25;0.20;;;;;;;9.32;42.23;100376.00;5310359;26;20019;-75
2024/04/24 07:52:57;;;;;;;3.17;0.10;;;;;;;11.42;38.51;100365.31;5352652;26;20008;-76
2024/04/24 07:55:23;;;;;;;8.93;0.20;;;;;;;14.16;34.19;100357.56;5292306;26;20234;-74
2024/04/24 07:57:49;;;;;;;3.72;0.20;;;;;;;16.18;30.18;100360.75;5310273;26;20005;-74
2024/04/24 08:00:15;;;;;;;4.30;0.20;;;;;;;16.38;29.94;100356.66;5313753;26;20005;-75
2024/04/24 08:02:41;;;;;;;0.70;0.15;;;;;;;14.56;31.60;100357.69;5332203;26;20204;-75
2024/04/24 08:05:06;;;;;;;8.88;0.30;;;;;;;11.17;34.58;100359.63;5302992;26;20053;-74
2024/04/24 08:07:34;;;;;;;0.88;0.10;;;;;;;9.13;39.96;100368.09;5308054;26;20429;-75
2024/04/24 08:10:01;;;;;;;0.70;0.10;;;;;;;7.45;42.69;100367.56;5329541;26;20441;-75
2024/04/24 08:12:26;;;;;;;0.52;0.28;;;;;;;6.96;44.70;100371.84;5300578;26;20086;-74
2024/04/24 08:14:52;;;;;;;3.05;0.20;;;;;;;6.18;46.55;100373.34;5315535;26;20013;-75
2024/04/24 08:17:18;;;;;;;0.50;0.17;;;;;;;5.74;48.31;100374.59;5310591;26;20047;-74
2024/04/24 08:19:44;;;;;;;1.30;0.20;;;;;;;5.67;49.68;100377.38;5298657;26;21120;-74
2024/04/24 08:22:09;;;;;;;0.88;0.17;;;;;;;5.51;48.89;100389.06;5311148;26;20013;-74
2024/04/24 08:24:35;;;;;;;3.00;1.13;;;;;;;5.51;48.88;100391.66;5298617;26;20368;-74
2024/04/24 08:27:01;;;;;;;3.30;0.30;;;;;;;5.33;49.96;100405.09;5321165;26;20016;-74
2024/04/24 08:29:28;;;;;;;2.58;0.63;;;;;;;4.70;51.89;100409.16;5344855;26;20025;-73
2024/04/24 08:31:54;;;;;;;0.90;0.28;;;;;;;4.50;52.22;100414.78;5327163;26;20017;-74
2024/04/24 08:34:20;;;;;;;2.50;0.40;;;;;;;4.17;52.33;100415.47;5299663;26;20013;-73
2024/04/24 08:36:45;;;;;;;2.33;0.22;;;;;;;4.28;52.82;100404.06;5295551;26;21811;-75
2024/04/24 08:39:14;;;;;;;2.90;0.77;;;;;;;4.02;54.00;100408.88;5353016;26;20012;-75
2024/04/24 08:41:44;;;;;;;1.02;0.28;;;;;;;3.55;54.91;100405.47;5325466;26;20067;-73
2024/04/24 08:44:13;;;;;;;0.73;0.13;;;;;;;3.73;54.65;100408.59;5300682;26;20010;-75
2024/04/24 08:46:39;;;;;;;3.15;0.30;;;;;;;3.92;54.15;100401.34;5295724;26;20033;-75
2024/04/24 08:49:06;;;;;;;0.57;0.20;;;;;;;3.77;54.56;100397.31;5299079;26;20017;-75
2024/04/24 08:51:36;;;;;;;0.70;0.15;;;;;;;4.45;54.33;100395.91;5304402;26;20436;-75
2024/04/24 08:54:04;;;;;;;1.83;0.15;;;;;;;4.83;52.50;100395.91;5305888;26;20057;-76
2024/04/24 08:56:35;;;;;;;1.42;0.22;;;;;;;4.77;53.12;100397.78;5350008;26;20049;-75
2024/04/24 08:59:06;;;;;;;2.38;0.17;;;;;;;4.62;52.73;100394.66;5302994;26;20020;-75
2024/04/24 09:01:39;;;;;;;1.50;0.17;;;;;;;4.68;53.28;100393.69;5291742;26;20056;-75
2024/04/24 09:04:06;;;;;;;1.38;0.10;;;;;;;4.84;52.54;100389.81;5322494;26;20464;-75
2024/04/24 09:06:34;;;;;;;0.60;0.10;;;;;;;5.04;52.53;100386.78;5306947;26;20019;-74
2024/04/24 09:09:01;;;;;;;1.85;0.20;;;;;;;4.88;52.65;100382.88;5285775;26;20021;-74
2024/04/24 09:11:27;;;;;;;0.40;0.10;;;;;;;4.86;53.04;100401.91;5309049;26;20052;-75
2024/04/24 09:13:53;;;;;;;1.17;0.30;;;;;;;4.89;52.98;100396.69;5306156;26;20535;-75
2024/04/24 09:16:21;;;;;;;0.82;0.65;;;;;;;4.79;52.87;100402.03;5352524;26;20008;-75
2024/04/24 09:19:02;;;;;;;0.68;0.25;;;;;;;4.77;53.00;100401.22;5299376;26;20006;-76
2024/04/24 09:21:29;;;;;;;1.90;0.20;;;;;;;4.80;53.82;100393.38;5327284;26;20111;-75
2024/04/24 09:23:55;;;;;;;0.63;0.10;;;;;;;4.71;53.47;100403.94;5306693;26;20019;-75
2024/04/24 09:26:21;;;;;;;0.43;0.10;;;;;;;5.18;53.23;100394.22;5298031;26;20010;-75
2024/04/24 09:28:47;;;;;;;0.57;0.15;;;;;;;5.64;52.08;100398.19;5299145;26;20509;-75
2024/04/24 09:31:13;;;;;;;4.22;0.30;;;;;;;5.87;51.34;100388.94;5304882;26;20020;-75
2024/04/24 09:33:39;;;;;;;0.38;0.20;;;;;;;6.28;51.22;100392.09;5294245;26;20005;-75
2024/04/24 09:36:06;;;;;;;0.55;0.20;;;;;;;6.60;49.63;100385.09;5288438;26;20016;-75
2024/04/24 09:38:32;;;;;;;3.92;0.68;;;;;;;6.72;48.56;100394.25;5320753;26;21323;-75
2024/04/24 09:40:59;;;;;;;0.70;0.13;;;;;;;6.24;49.46;100390.50;5298244;26;20181;-75
2024/04/24 09:43:30;;;;;;;0.90;0.30;;;;;;;5.99;51.13;100388.56;5297490;26;20038;-75
2024/04/24 09:45:57;;;;;;;2.60;0.43;;;;;;;5.97;51.46;100387.78;5313694;26;20551;-75
2024/04/24 09:48:23;;;;;;;0.20;0.10;;;;;;;6.01;50.19;100399.75;5289895;26;20009;-75
2024/04/24 09:50:50;;;;;;;0.22;0.03;;;;;;;5.63;49.82;100396.47;5290665;26;20086;-75
2024/04/24 09:53:22;;;;;;;1.58;0.20;;;;;;;5.62;50.06;100402.56;5345859;26;20024;-75
2024/04/24 09:56:10;;;;;;;0.28;0.08;;;;;;;5.73;50.25;100407.47;5270210;26;20806;-75
2024/04/24 09:58:38;;;;;;;0.10;0.00;;;;;;;5.70;50.84;100396.31;5267113;26;20534;-75
2024/04/24 10:01:08;;;;;;;1.65;0.00;;;;;;;5.34;50.66;100396.41;5305794;26;20020;-75
2024/04/24 10:03:38;;;;;;;0.73;0.10;;;;;;;5.29;50.49;100395.69;5293047;26;20016;-75
2024/04/24 10:06:07;;;;;;;1.13;0.00;;;;;;;5.62;50.20;100392.22;5356037;26;20016;-75
2024/04/24 10:08:36;;;;;;;0.25;0.00;;;;;;;5.54;50.86;100404.50;5351724;26;20011;-75
2024/04/24 10:11:05;;;;;;;2.40;0.00;;;;;;;5.48;52.04;100396.94;5295935;26;20019;-75
2024/04/24 10:13:37;;;;;;;0.00;0.00;;;;;;;5.22;52.23;100400.19;5308446;26;24246;-75
2024/04/24 10:16:04;;;;;;;0.45;0.00;;;;;;;5.45;50.78;100402.16;5268274;26;20006;-75
2024/04/24 10:18:31;;;;;;;1.95;0.15;;;;;;;5.44;51.33;100397.88;5294145;26;20076;-75
2024/04/24 10:20:57;;;;;;;0.52;0.00;;;;;;;5.13;51.32;100398.66;5293352;26;20005;-75
2024/04/24 10:23:26;;;;;;;0.20;0.00;;;;;;;5.70;51.51;100402.34;5301446;26;20803;-75
2024/04/24 10:25:52;;;;;;;1.38;0.10;;;;;;;5.95;50.39;100394.78;5271139;26;20798;-75
2024/04/24 10:28:20;;;;;;;0.10;0.00;;;;;;;5.97;50.31;100398.19;5349007;26;20053;-75
2024/04/24 10:30:47;;;;;;;1.85;0.00;;;;;;;6.10;49.47;100396.06;5303346;26;20024;-75
2024/04/24 10:33:14;;;;;;;0.10;0.00;;;;;;;6.76;48.81;100395.84;5293538;26;20021;-75
2024/04/24 10:35:39;;;;;;;0.73;0.30;;;;;;;6.90;46.14;100394.50;5275481;26;20013;-74
2024/04/24 10:38:06;;;;;;;0.10;0.00;;;;;;;6.77;46.24;100392.34;5293259;26;20385;-75
2024/04/24 10:40:33;;;;;;;2.22;0.25;;;;;;;7.08;47.78;100384.41;5348261;26;20012;-74
2024/04/24 10:43:00;;;;;;;1.85;0.10;;;;;;;8.28;47.34;100388.00;5306178;26;20104;-75
2024/04/24 10:45:27;;;;;;;0.00;0.00;;;;;;;8.70;44.87;100379.41;5328027;26;20009;-75
2024/04/24 10:47:53;;;;;;;3.10;0.90;;;;;;;8.50;43.82;100386.25;5294986;26;20017;-75
2024/04/24 10:50:19;;;;;;;0.10;0.00;;;;;;;7.80;45.70;100386.28;5263707;26;20150;-74
2024/04/24 10:52:51;;;;;;;0.43;0.10;;;;;;;7.52;47.75;100384.66;5299482;26;20513;-75
2024/04/24 10:55:18;;;;;;;0.22;0.03;;;;;;;7.57;47.24;100374.97;5298677;26;20359;-75
2024/04/24 10:57:48;;;;;;;1.17;0.10;;;;;;;7.85;46.02;100374.81;5297110;26;20006;-75
2024/04/24 11:00:28;;;;;;;1.65;0.43;;;;;;;8.11;46.41;100375.59;5291325;26;20016;-75
2024/04/24 11:02:56;;;;;;;1.63;0.73;;;;;;;8.68;46.30;100371.66;5345967;26;20742;-75
2024/04/24 11:05:22;;;;;;;0.45;0.10;;;;;;;9.31;43.23;100371.69;5297030;26;20145;-73
2024/04/24 11:08:04;;;;;;;1.50;0.10;;;;;;;9.71;43.24;100367.34;5321250;26;20023;-76
2024/04/24 11:10:32;;;;;;;;;;;;;;;8.06;43.13;100369.72;5302527;26;20114;-74
2024/04/24 11:12:58;;;;;;;0.30;0.00;;;;;;;7.68;43.53;100372.81;5293895;26;19942;-74
2024/04/24 11:15:25;;;;;;;1.33;0.00;;;;;;;7.98;45.22;100374.34;5306375;26;20082;-77
2024/04/24 11:17:51;;;;;;;1.08;0.10;;;;;;;8.53;44.44;100360.06;5296389;26;20119;-76
2024/04/24 11:20:18;;;;;;;0.73;0.05;;;;;;;8.08;44.21;100371.38;5296223;26;20063;-75
2024/04/24 11:22:44;;;;;;;0.57;0.35;;;;;;;8.66;44.64;100359.59;5307061;26;20420;-76
2024/04/24 11:25:12;;;;;;;0.32;0.10;;;;;;;8.53;44.12;100378.31;5347421;26;20735;-74
2024/04/24 11:27:38;;;;;;;2.33;0.03;;;;;;;7.99;43.86;100371.72;5302629;26;20075;-75
2024/04/24 11:30:09;;;;;;;3.25;0.10;;;;;;;7.57;44.56;100374.97;5296379;26;20005;-74
2024/04/24 11:32:36;;;;;;;2.08;0.00;;;;;;;7.84;45.62;100372.28;5296566;26;20006;-76
2024/04/24 11:35:01;;;;;;;0.52;0.03;;;;;;;7.65;45.46;100367.75;5301189;26;20016;-74